Time;durP1;ratioP1;P1;durP2;ratioP2;P2;SDS_P1;SDS_P2;PMS_P1;PMS_P2;Temp;Humidity;BMP_temperature;BMP_pressure;BME280_temperature;BME280_humidity;BME280_pressure;Samples;Min_cycle;Max_cycle;Signal;HPM_P1;HPM_P2
2022/11/03 00:01:32;;;;;;;14.93;3.53;;;;;;;11.57;81.21;101325.38;5020243;28;20378;-84
2022/11/03 00:03:57;;;;;;;18.73;4.23;;;;;;;11.51;81.52;101320.78;5019644;28;20041;-83
2022/11/03 00:06:22;;;;;;;14.50;3.90;;;;;;;11.54;81.69;101314.94;5018500;28;20048;-83
2022/11/03 00:08:47;;;;;;;16.83;3.90;;;;;;;11.54;81.82;101314.09;5001402;28;21445;-83
2022/11/03 00:11:14;;;;;;;16.43;4.00;;;;;;;11.50;81.96;101313.66;5001210;28;20179;-82
2022/11/03 00:13:41;;;;;;;13.57;3.63;;;;;;;11.52;81.58;101314.31;5019205;28;20462;-83
2022/11/03 00:16:09;;;;;;;15.70;3.70;;;;;;;11.54;81.80;101306.78;5019349;28;20041;-82
2022/11/03 00:18:35;;;;;;;14.07;3.60;;;;;;;11.54;81.12;101300.53;5011744;28;20119;-82
2022/11/03 00:21:02;;;;;;;15.33;3.47;;;;;;;11.55;81.47;101302.22;5018661;28;20039;-82
2022/11/03 00:23:30;;;;;;;16.63;3.70;;;;;;;11.55;81.21;101292.19;5019427;28;20052;-85
2022/11/03 00:26:14;;;;;;;14.63;3.77;;;;;;;11.60;81.43;101297.81;5016630;28;20037;-82
2022/11/03 00:28:41;;;;;;;13.53;3.60;;;;;;;11.64;80.51;101293.66;5000950;28;20756;-83
2022/11/03 00:31:12;;;;;;;14.60;4.23;;;;;;;11.59;81.08;101293.44;5000459;28;20165;-81
2022/11/03 00:33:39;;;;;;;15.87;3.87;;;;;;;11.61;81.09;101290.50;5001704;28;20071;-84
2022/11/03 00:36:05;;;;;;;14.50;3.73;;;;;;;11.63;81.08;101275.69;5000957;28;20124;-83
2022/11/03 00:38:31;;;;;;;15.13;3.57;;;;;;;11.62;80.95;101274.00;5000729;28;20081;-82
2022/11/03 00:40:59;;;;;;;15.53;3.47;;;;;;;11.62;81.29;101282.16;4995599;28;20129;-86
2022/11/03 00:43:25;;;;;;;14.50;3.50;;;;;;;11.67;80.44;101276.13;5000649;28;20104;-84
2022/11/03 00:45:51;;;;;;;14.47;3.80;;;;;;;11.61;81.40;101266.94;4995670;28;20113;-83
2022/11/03 00:48:28;;;;;;;13.57;3.70;;;;;;;11.58;81.31;101259.19;4988336;28;20049;-84
2022/11/03 00:50:59;;;;;;;14.83;4.27;;;;;;;11.59;81.34;101254.63;5012922;28;20038;-82
2022/11/03 00:53:24;;;;;;;15.43;4.13;;;;;;;11.57;81.29;101240.41;4990224;28;20994;-85
2022/11/03 00:55:50;;;;;;;13.80;3.70;;;;;;;11.60;81.16;101251.69;4978959;28;20042;-83
2022/11/03 00:58:15;;;;;;;15.90;4.00;;;;;;;11.55;81.66;101237.91;4996450;28;20038;-82
2022/11/03 01:00:40;;;;;;;14.03;4.07;;;;;;;11.56;81.90;101245.00;4993052;28;20069;-84
2022/11/03 01:03:05;;;;;;;14.53;3.70;;;;;;;11.55;81.65;101232.47;4990624;28;20046;-85
2022/11/03 01:08:15;;;;;;;15.85;3.92;;;;;;;11.56;82.23;101231.44;4997991;28;20513;-84
2022/11/03 01:11:42;;;;;;;18.60;4.00;;;;;;;11.53;81.96;101220.97;4983008;28;20039;-83
2022/11/03 01:13:26;;;;;;;16.37;4.47;;;;;;;11.53;82.27;101212.84;4979739;28;20042;-84
2022/11/03 01:15:55;;;;;;;15.60;4.03;;;;;;;11.54;82.20;101217.22;5005677;28;20022;-82
2022/11/03 01:18:20;;;;;;;14.37;3.87;;;;;;;11.50;82.22;101213.25;4987945;28;20032;-83
2022/11/03 01:20:45;;;;;;;16.27;3.50;;;;;;;11.55;82.37;101215.38;4998410;28;21020;-84
2022/11/03 01:23:11;;;;;;;11.90;3.50;;;;;;;11.55;82.41;101210.75;4997975;28;20540;-83
2022/11/03 01:25:36;;;;;;;16.27;4.20;;;;;;;11.54;82.43;101203.66;4998391;28;20050;-84
2022/11/03 01:28:01;;;;;;;14.20;3.47;;;;;;;11.55;82.69;101199.09;5000313;28;20049;-83
2022/11/03 01:30:27;;;;;;;13.43;3.77;;;;;;;11.59;82.46;101205.75;5018249;28;20603;-83
2022/11/03 01:32:52;;;;;;;14.23;3.80;;;;;;;11.57;82.64;101195.13;5010847;28;20072;-84
2022/11/03 01:35:17;;;;;;;17.70;3.80;;;;;;;11.58;82.64;101196.78;5017875;28;20065;-83
2022/11/03 01:37:43;;;;;;;14.77;3.67;;;;;;;11.61;82.74;101192.81;5020534;28;20120;-83
2022/11/03 01:40:09;;;;;;;15.33;3.63;;;;;;;11.63;82.57;101188.84;5022520;28;20040;-84
2022/11/03 01:42:34;;;;;;;16.03;3.80;;;;;;;11.66;82.19;101187.59;5021324;28;20504;-82
2022/11/03 01:44:59;;;;;;;12.33;3.77;;;;;;;11.65;82.25;101186.75;5022799;28;20052;-82
2022/11/03 01:47:29;;;;;;;15.17;3.53;;;;;;;11.65;82.69;101184.06;5021795;28;20037;-82
2022/11/03 01:50:00;;;;;;;14.37;3.23;;;;;;;11.66;82.72;101179.44;5021539;28;20033;-83
2022/11/03 01:53:03;;;;;;;13.47;3.60;;;;;;;11.70;82.40;101166.28;5022397;28;20025;-84
2022/11/03 01:55:35;;;;;;;13.90;3.50;;;;;;;11.68;82.71;101160.22;5019130;28;20168;-83
2022/11/03 01:58:29;;;;;;;13.30;3.50;;;;;;;11.72;82.62;101167.75;5004798;28;20037;-83
2022/11/03 02:00:59;;;;;;;11.90;3.30;;;;;;;11.81;82.16;101160.22;5020271;28;20064;-82
2022/11/03 02:03:27;;;;;;;14.17;3.80;;;;;;;11.81;81.70;101166.47;5022856;28;20046;-83
2022/11/03 02:05:54;;;;;;;14.67;3.93;;;;;;;11.90;81.45;101150.78;5021908;28;20037;-82
2022/11/03 02:08:38;;;;;;;12.77;3.27;;;;;;;11.97;81.57;101156.25;5021389;28;20037;-82
2022/11/03 02:12:05;;;;;;;13.33;3.60;;;;;;;12.03;81.44;101140.97;5021002;28;20029;-84
2022/11/03 02:13:49;;;;;;;14.23;3.37;;;;;;;12.08;81.48;101149.31;5021650;28;20307;-83
2022/11/03 02:16:14;;;;;;;11.73;3.70;;;;;;;12.03;81.62;101147.22;5021127;28;20048;-82
2022/11/03 02:18:42;;;;;;;13.43;3.93;;;;;;;12.06;81.48;101140.53;5022282;28;20040;-83
2022/11/03 02:21:35;;;;;;;14.60;3.50;;;;;;;12.04;82.06;101138.03;5021914;28;20131;-84
2022/11/03 02:24:17;;;;;;;13.90;3.50;;;;;;;12.03;81.86;101121.97;5021135;28;20045;-83
2022/11/03 02:26:52;;;;;;;15.50;4.17;;;;;;;12.12;80.99;101129.63;5020718;28;20041;-82
2022/11/03 02:29:18;;;;;;;15.40;3.23;;;;;;;12.10;81.13;101117.31;5021276;28;20370;-83
2022/11/03 02:32:08;;;;;;;10.80;3.17;;;;;;;12.07;81.08;101115.03;5021153;28;20673;-83
2022/11/03 02:34:45;;;;;;;14.63;3.40;;;;;;;12.13;80.97;101112.31;5021820;28;20084;-83
2022/11/03 02:37:16;;;;;;;12.97;3.40;;;;;;;12.15;80.81;101106.66;5035012;28;20025;-85
2022/11/03 02:39:54;;;;;;;13.80;3.50;;;;;;;12.14;80.72;101088.69;5021206;28;20036;-83
2022/11/03 02:42:21;;;;;;;13.10;3.43;;;;;;;12.17;81.13;101104.53;5022253;28;20029;-85
2022/11/03 02:44:47;;;;;;;13.17;3.30;;;;;;;12.18;81.17;101106.22;5020897;28;20052;-82
2022/11/03 02:47:13;;;;;;;14.37;3.70;;;;;;;12.20;80.93;101098.69;5019893;28;20038;-82
2022/11/03 02:49:45;;;;;;;16.50;3.40;;;;;;;12.12;81.24;101090.78;5020237;28;20049;-83
2022/11/03 02:52:34;;;;;;;12.40;3.33;;;;;;;12.27;81.07;101099.47;5020052;28;20033;-84
2022/11/03 02:55:09;;;;;;;12.33;3.07;;;;;;;12.14;81.61;101083.25;5019856;28;20033;-84
2022/11/03 02:57:42;;;;;;;16.03;3.80;;;;;;;12.20;81.45;101085.09;5020745;28;20037;-83
2022/11/03 03:00:09;;;;;;;10.77;3.00;;;;;;;12.17;81.51;101066.50;5004343;28;20029;-83
2022/11/03 03:02:51;;;;;;;11.57;2.93;;;;;;;12.17;82.07;101077.38;5020070;28;20033;-82
2022/11/03 03:05:20;;;;;;;13.87;3.30;;;;;;;12.11;81.94;101076.34;5021134;28;20116;-85
2022/11/03 03:07:50;;;;;;;14.20;4.07;;;;;;;12.16;82.37;101068.41;5021260;28;20061;-87
2022/11/03 03:10:26;;;;;;;13.13;3.57;;;;;;;12.18;81.98;101065.47;5021559;28;20033;-82
2022/11/03 03:12:55;;;;;;;11.53;3.23;;;;;;;12.18;82.14;101053.78;5020575;28;20373;-83
2022/11/03 03:15:30;;;;;;;12.67;3.30;;;;;;;12.14;82.62;101045.22;5020763;28;20120;-82
2022/11/03 03:18:12;;;;;;;17.10;3.58;;;;;;;12.18;82.38;101051.88;5035346;28;20037;-83
2022/11/03 03:20:46;;;;;;;13.30;3.00;;;;;;;12.19;82.05;101045.41;5020533;28;20713;-84
2022/11/03 03:23:17;;;;;;;12.95;3.72;;;;;;;12.20;82.41;101033.50;5019984;28;20030;-84
2022/11/03 03:26:02;;;;;;;12.10;3.33;;;;;;;12.15;82.92;101030.59;5020215;28;21202;-84
2022/11/03 03:28:47;;;;;;;;;;;;;;;12.30;82.21;101044.69;5020667;28;20049;-85
2022/11/03 03:31:15;;;;;;;12.13;3.63;;;;;;;12.13;83.09;101035.41;5019177;28;19920;-84
2022/11/03 03:33:43;;;;;;;13.07;3.43;;;;;;;12.13;83.34;101021.81;5019008;28;20526;-84
2022/11/03 03:36:14;;;;;;;13.43;3.30;;;;;;;12.11;82.92;101032.91;5020371;28;20396;-82
2022/11/03 03:38:45;;;;;;;13.07;3.37;;;;;;;12.14;83.02;101034.34;5019843;28;20040;-83
2022/11/03 03:41:20;;;;;;;14.27;3.40;;;;;;;12.11;83.64;101038.34;5019739;28;20040;-82
2022/11/03 03:43:57;;;;;;;10.43;3.27;;;;;;;12.18;82.71;101027.44;5020780;28;20030;-82
2022/11/03 03:46:27;;;;;;;12.80;3.03;;;;;;;12.18;82.69;101021.19;5019652;28;20048;-83
2022/11/03 03:48:53;;;;;;;13.93;3.60;;;;;;;12.11;83.36;101024.75;5018958;28;20029;-84
2022/11/03 03:51:23;;;;;;;13.50;3.30;;;;;;;12.18;83.33;101018.47;5033921;28;20072;-84
2022/11/03 03:53:51;;;;;;;12.27;3.00;;;;;;;12.18;83.35;101018.47;5019658;28;20117;-84
2022/11/03 03:56:28;;;;;;;13.20;3.10;;;;;;;12.18;83.32;101013.84;5019805;28;20122;-83
2022/11/03 03:58:54;;;;;;;11.93;3.30;;;;;;;12.15;83.65;100998.81;5019815;28;20049;-84
2022/11/03 04:01:19;;;;;;;15.80;3.47;;;;;;;12.16;83.46;100996.97;5020889;28;20041;-82
2022/11/03 04:03:44;;;;;;;11.77;3.23;;;;;;;12.11;84.00;100988.63;5018369;28;20045;-84
2022/11/03 04:06:10;;;;;;;10.87;3.47;;;;;;;12.11;84.13;100991.34;5019938;28;20043;-85
2022/11/03 04:08:35;;;;;;;15.73;3.83;;;;;;;12.09;84.26;100983.41;5019618;28;20041;-83
2022/11/03 04:22:15;;;;;;;11.13;3.17;;;;;;;12.14;84.42;100980.03;5031544;28;20107;-84
2022/11/03 04:24:40;;;;;;;15.30;3.20;;;;;;;12.09;85.00;100977.97;5019763;28;20040;-84
2022/11/03 04:27:24;;;;;;;9.27;3.00;;;;;;;12.16;84.72;100976.03;5019006;28;20053;-83
2022/11/03 04:29:49;;;;;;;16.23;3.50;;;;;;;12.12;85.33;100980.25;5019628;28;20041;-82
2022/11/03 04:32:16;;;;;;;13.40;3.10;;;;;;;12.07;85.83;100973.81;5018065;28;20041;-84
2022/11/03 04:34:45;;;;;;;12.90;3.63;;;;;;;12.02;86.08;100966.31;5019828;28;20049;-83
2022/11/03 04:37:14;;;;;;;16.17;3.80;;;;;;;12.01;86.12;100966.53;5018905;28;20177;-84
2022/11/03 04:39:40;;;;;;;9.00;3.03;;;;;;;12.03;86.51;100970.69;5019912;28;20198;-84
2022/11/03 04:42:20;;;;;;;13.43;3.43;;;;;;;11.99;86.71;100966.75;5001249;28;20485;-83
2022/11/03 04:44:46;;;;;;;12.80;3.30;;;;;;;11.97;86.69;100956.13;5019593;28;20576;-82
2022/11/03 04:47:13;;;;;;;14.17;3.70;;;;;;;11.92;87.14;100958.63;5019088;28;20041;-83
2022/11/03 04:49:39;;;;;;;13.13;3.40;;;;;;;11.92;87.49;100955.91;5019076;28;20072;-83
2022/11/03 04:52:15;;;;;;;12.40;3.80;;;;;;;11.93;87.71;100963.00;5019302;28;20687;-83
2022/11/03 04:54:40;;;;;;;14.63;3.30;;;;;;;11.92;88.13;100958.63;5019146;28;20063;-82
2022/11/03 04:57:14;;;;;;;12.30;3.27;;;;;;;11.96;87.58;100951.72;5018865;28;20045;-84
2022/11/03 04:59:42;;;;;;;9.90;3.33;;;;;;;12.01;87.87;100947.53;5019201;28;20041;-84
2022/11/03 05:02:16;;;;;;;9.37;3.30;;;;;;;11.93;88.43;100937.75;5019280;28;20038;-81
2022/11/03 05:04:42;;;;;;;13.07;3.33;;;;;;;12.02;87.80;100936.44;5019012;28;20034;-85
2022/11/03 05:07:27;;;;;;;15.07;3.47;;;;;;;11.99;88.30;100928.75;5018938;28;20049;-85
2022/11/03 05:09:53;;;;;;;14.83;3.60;;;;;;;12.01;88.64;100932.06;5018112;28;20041;-85
2022/11/03 05:12:19;;;;;;;14.00;3.43;;;;;;;11.99;88.73;100924.16;5019849;28;20036;-83
2022/11/03 05:14:45;;;;;;;12.73;3.27;;;;;;;11.98;89.11;100927.91;5037357;28;20091;-84
2022/11/03 05:17:21;;;;;;;13.23;3.40;;;;;;;11.97;89.34;100923.53;5022176;28;20037;-82
2022/11/03 05:19:48;;;;;;;13.63;3.87;;;;;;;11.99;88.99;100924.16;5024381;28;20035;-86
2022/11/03 05:22:17;;;;;;;14.10;3.37;;;;;;;11.95;89.42;100922.94;5022676;28;20045;-83
2022/11/03 05:24:43;;;;;;;15.40;3.60;;;;;;;11.97;89.62;100922.72;5021728;28;20439;-83
2022/11/03 05:27:18;;;;;;;15.87;3.70;;;;;;;11.95;89.83;100920.22;5022103;28;20489;-84
2022/11/03 05:29:43;;;;;;;14.48;3.55;;;;;;;11.91;89.95;100905.38;5022250;28;20083;-86
2022/11/03 05:32:18;;;;;;;13.90;3.50;;;;;;;11.89;90.20;100898.50;5022058;28;20428;-83
2022/11/03 05:34:50;;;;;;;13.10;3.80;;;;;;;11.86;90.42;100902.50;5022466;28;20346;-84
2022/11/03 05:37:25;;;;;;;15.47;3.80;;;;;;;11.86;90.97;100897.06;5022485;28;20048;-84
2022/11/03 05:39:52;;;;;;;11.33;3.60;;;;;;;11.85;91.11;100892.66;5021506;28;21317;-84
2022/11/03 05:42:40;;;;;;;14.10;3.50;;;;;;;11.85;91.63;100889.13;5021971;28;20447;-86
2022/11/03 05:45:21;;;;;;;11.87;3.63;;;;;;;11.86;91.86;100885.34;5013517;28;20490;-85
2022/11/03 05:47:48;;;;;;;12.40;3.27;;;;;;;11.85;91.89;100878.28;5022141;28;20628;-84
2022/11/03 05:50:24;;;;;;;13.80;3.50;;;;;;;11.89;91.85;100874.88;5021892;28;20116;-82
2022/11/03 05:52:57;;;;;;;15.53;4.00;;;;;;;11.93;92.35;100870.69;5022154;28;20108;-83
2022/11/03 05:55:32;;;;;;;16.27;4.00;;;;;;;11.96;92.17;100878.41;5022373;28;20040;-82
2022/11/03 05:58:11;;;;;;;15.82;3.55;;;;;;;11.94;91.99;100872.38;5021309;28;20300;-84
2022/11/03 06:00:39;;;;;;;15.60;4.20;;;;;;;11.95;92.05;100873.22;5022780;28;20599;-83
2022/11/03 06:03:05;;;;;;;12.23;3.47;;;;;;;11.94;92.21;100866.94;5021693;28;21297;-85
2022/11/03 06:05:32;;;;;;;15.50;3.70;;;;;;;11.91;92.56;100861.94;5022345;28;20044;-83
2022/11/03 06:08:01;;;;;;;14.60;3.60;;;;;;;11.92;92.91;100870.91;5020477;28;20033;-85
2022/11/03 06:10:31;;;;;;;13.30;3.27;;;;;;;11.88;92.84;100851.50;5021622;28;21792;-86
2022/11/03 06:13:18;;;;;;;15.57;3.80;;;;;;;11.94;92.82;100847.94;5021398;28;20029;-84
2022/11/03 06:15:46;;;;;;;15.13;3.70;;;;;;;11.90;93.12;100848.56;5021835;28;20025;-86
2022/11/03 06:18:28;;;;;;;14.40;3.80;;;;;;;11.93;93.23;100840.81;5021255;28;20481;-84
2022/11/03 06:20:58;;;;;;;15.40;4.30;;;;;;;11.88;93.39;100840.63;5021646;28;20155;-83
2022/11/03 06:23:24;;;;;;;14.17;3.83;;;;;;;11.90;93.13;100843.97;5021808;28;20038;-84
2022/11/03 06:25:55;;;;;;;10.87;3.60;;;;;;;11.91;92.96;100842.94;5020590;28;20033;-84
2022/11/03 06:28:29;;;;;;;12.03;3.43;;;;;;;11.91;93.34;100839.38;5020793;28;20108;-83
2022/11/03 06:30:55;;;;;;;13.50;3.13;;;;;;;11.91;93.03;100842.94;5020128;28;20049;-83
2022/11/03 06:33:34;;;;;;;11.67;3.33;;;;;;;11.93;92.90;100840.81;5021411;28;20125;-83
2022/11/03 06:36:12;;;;;;;12.63;3.53;;;;;;;11.91;92.87;100828.50;5021866;28;20029;-85
2022/11/03 06:38:38;;;;;;;13.37;3.70;;;;;;;11.91;92.79;100828.50;5021178;28;20041;-86
2022/11/03 06:41:03;;;;;;;13.47;3.30;;;;;;;11.93;93.06;100827.25;5021674;28;20088;-85
2022/11/03 06:43:41;;;;;;;14.93;4.10;;;;;;;11.93;92.93;100837.28;5020496;28;20374;-84
2022/11/03 06:46:27;;;;;;;14.20;3.93;;;;;;;11.93;92.75;100829.97;5004248;28;20048;-85
2022/11/03 06:48:56;;;;;;;12.67;3.47;;;;;;;11.90;92.90;100822.25;5019769;28;20037;-84
2022/11/03 06:51:27;;;;;;;12.57;3.30;;;;;;;11.92;92.93;100825.56;5020959;28;20132;-85
2022/11/03 06:53:54;;;;;;;12.03;3.80;;;;;;;11.88;93.06;100816.19;5020181;28;20038;-83
2022/11/03 06:56:34;;;;;;;12.90;3.60;;;;;;;11.86;92.76;100815.63;5036910;28;20091;-84
2022/11/03 06:58:59;;;;;;;13.40;3.50;;;;;;;11.81;92.89;100813.53;5020323;28;20124;-84
2022/11/03 07:01:29;;;;;;;13.13;3.50;;;;;;;11.73;93.29;100805.66;5021293;28;20046;-83
2022/11/03 07:04:00;;;;;;;14.83;3.50;;;;;;;11.73;93.75;100807.56;5020274;28;20025;-84
2022/11/03 07:06:30;;;;;;;16.00;3.53;;;;;;;11.72;93.53;100808.59;5021870;28;20420;-84
2022/11/03 07:08:58;;;;;;;12.90;3.53;;;;;;;11.71;93.45;100812.38;5019859;28;20158;-86
2022/11/03 07:11:27;;;;;;;15.47;3.50;;;;;;;11.71;93.62;100812.38;5036764;28;20662;-85
2022/11/03 07:13:55;;;;;;;12.83;3.63;;;;;;;11.69;93.87;100812.59;5021227;28;20332;-84
2022/11/03 07:16:35;;;;;;;13.67;3.60;;;;;;;11.71;93.74;100806.94;5020344;28;20378;-83
2022/11/03 07:19:04;;;;;;;12.47;3.60;;;;;;;11.72;93.62;100808.59;5019817;28;20037;-84
2022/11/03 07:21:31;;;;;;;14.13;3.43;;;;;;;11.71;93.77;100801.50;5021724;28;20029;-84
2022/11/03 07:24:03;;;;;;;11.67;3.73;;;;;;;11.71;93.42;100805.06;5019862;28;20076;-83
2022/11/03 07:26:28;;;;;;;15.77;3.60;;;;;;;11.70;93.41;100803.41;5020655;28;20033;-84
2022/11/03 07:28:54;;;;;;;12.13;3.70;;;;;;;11.71;93.29;100801.50;5020831;28;20041;-83
2022/11/03 07:31:22;;;;;;;12.97;3.30;;;;;;;11.71;93.38;100802.38;5001113;28;20127;-84
2022/11/03 07:33:49;;;;;;;14.90;4.53;;;;;;;11.70;93.49;100797.97;5020238;28;20029;-85
2022/11/03 07:36:21;;;;;;;12.80;3.50;;;;;;;11.70;93.37;100791.72;5020176;28;20045;-84
2022/11/03 07:38:50;;;;;;;14.33;4.13;;;;;;;11.71;93.62;100794.22;5034570;28;20167;-85
2022/11/03 07:41:19;;;;;;;14.33;3.73;;;;;;;11.72;92.85;100778.75;5017737;28;20410;-84
2022/11/03 07:43:57;;;;;;;14.97;4.17;;;;;;;11.74;92.74;100784.81;5019732;28;20045;-85
2022/11/03 07:46:24;;;;;;;13.33;3.70;;;;;;;11.73;93.41;100777.72;5020864;28;20056;-85
2022/11/03 07:48:54;;;;;;;13.23;3.67;;;;;;;11.76;92.93;100777.25;5019415;28;20083;-83
2022/11/03 07:51:22;;;;;;;13.20;4.00;;;;;;;11.79;92.62;100776.81;5002441;28;20549;-84
2022/11/03 07:53:49;;;;;;;13.27;3.53;;;;;;;11.80;92.78;100778.47;5020094;28;20037;-84
2022/11/03 07:56:27;;;;;;;15.63;3.83;;;;;;;11.83;92.42;100786.16;5000736;28;20037;-85
2022/11/03 07:59:10;;;;;;;11.53;3.60;;;;;;;11.87;92.34;100784.69;5018937;28;20041;-83
2022/11/03 08:01:44;;;;;;;12.73;3.40;;;;;;;11.90;92.34;100781.53;5019836;28;20028;-84
2022/11/03 08:04:22;;;;;;;17.17;3.97;;;;;;;11.89;92.20;100779.88;5019344;28;20049;-84
2022/11/03 08:06:47;;;;;;;11.90;3.40;;;;;;;11.91;92.12;100776.94;5019471;28;20036;-84
2022/11/03 08:09:13;;;;;;;16.30;4.50;;;;;;;11.91;92.01;100785.91;5019363;28;20070;-84
2022/11/03 08:11:38;;;;;;;12.97;4.10;;;;;;;11.92;91.79;100773.97;5020138;28;20052;-85
2022/11/03 08:14:04;;;;;;;13.57;4.00;;;;;;;11.96;91.48;100777.94;5018362;28;20783;-83
2022/11/03 08:16:29;;;;;;;11.63;4.37;;;;;;;11.98;91.46;100773.13;5020074;28;21433;-85
2022/11/03 08:18:55;;;;;;;13.00;3.53;;;;;;;12.00;91.25;100764.75;5018427;28;21842;-84
2022/11/03 08:21:20;;;;;;;12.33;3.30;;;;;;;11.97;91.55;100755.19;5001007;28;21451;-84
2022/11/03 08:23:45;;;;;;;17.20;3.50;;;;;;;11.97;90.78;100743.50;5016701;28;20489;-82
2022/11/03 08:26:11;;;;;;;9.90;3.23;;;;;;;12.01;90.69;100742.00;5019613;28;20044;-83
2022/11/03 08:28:36;;;;;;;12.07;3.30;;;;;;;12.06;90.87;100739.44;5017899;28;20107;-84
2022/11/03 08:31:03;;;;;;;11.83;3.20;;;;;;;12.10;90.75;100734.38;5007074;28;20095;-84
2022/11/03 08:33:34;;;;;;;10.63;3.03;;;;;;;12.12;90.31;100724.94;5007763;28;20037;-83
2022/11/03 08:36:00;;;;;;;12.07;3.50;;;;;;;12.18;90.13;100719.69;5007940;28;20037;-83
2022/11/03 08:38:26;;;;;;;10.10;3.40;;;;;;;12.20;89.87;100712.13;5006705;28;20379;-84
2022/11/03 08:40:52;;;;;;;11.23;3.33;;;;;;;12.19;89.91;100700.44;5008651;28;20037;-82
2022/11/03 08:43:18;;;;;;;12.60;3.23;;;;;;;12.23;89.55;100701.66;5007250;28;20431;-83
2022/11/03 08:45:44;;;;;;;13.20;3.67;;;;;;;12.22;89.10;100686.41;5004508;28;20071;-84
2022/11/03 08:48:10;;;;;;;14.27;3.60;;;;;;;12.27;88.77;100686.56;5007492;28;20048;-87
2022/11/03 08:50:35;;;;;;;14.17;3.37;;;;;;;12.30;88.98;100674.41;5022216;28;20586;-84
2022/11/03 08:53:00;;;;;;;12.87;3.10;;;;;;;12.28;88.58;100654.78;5022978;28;20042;-83
2022/11/03 08:55:26;;;;;;;13.77;3.90;;;;;;;12.35;88.39;100650.09;5007882;28;20594;-84
2022/11/03 08:57:51;;;;;;;14.23;3.40;;;;;;;12.36;88.49;100638.16;5023019;28;20045;-83
2022/11/03 09:00:17;;;;;;;11.83;3.43;;;;;;;12.42;88.54;100647.31;5021808;28;20701;-85
2022/11/03 09:02:43;;;;;;;12.47;3.27;;;;;;;12.44;88.29;100650.59;5006877;28;20080;-84
2022/11/03 09:05:10;;;;;;;11.27;3.43;;;;;;;12.48;87.74;100643.66;5004278;28;20481;-85
2022/11/03 09:07:35;;;;;;;10.90;3.37;;;;;;;12.52;87.96;100639.41;5007222;28;20164;-83
2022/11/03 09:10:01;;;;;;;14.70;3.87;;;;;;;12.59;87.43;100636.63;5011326;28;20077;-85
2022/11/03 09:12:26;;;;;;;12.03;3.30;;;;;;;12.64;86.71;100621.25;5000499;28;20654;-83
2022/11/03 09:14:51;;;;;;;12.83;3.10;;;;;;;12.70;86.34;100602.38;5018638;28;20102;-85
2022/11/03 09:17:17;;;;;;;10.13;3.00;;;;;;;12.75;86.36;100603.34;5019640;28;20033;-85
2022/11/03 09:19:42;;;;;;;10.77;3.03;;;;;;;12.80;85.84;100597.22;5016701;28;20084;-87
2022/11/03 09:22:07;;;;;;;11.70;3.70;;;;;;;12.83;85.13;100591.31;5016977;28;20036;-83
2022/11/03 09:24:33;;;;;;;11.77;3.70;;;;;;;12.92;84.87;100589.91;5017097;28;20137;-84
2022/11/03 09:26:58;;;;;;;15.13;3.63;;;;;;;12.95;84.83;100584.00;5016718;28;20033;-85
2022/11/03 09:29:24;;;;;;;9.80;3.10;;;;;;;12.99;84.34;100574.31;5016562;28;20120;-85
2022/11/03 09:31:49;;;;;;;10.77;2.80;;;;;;;13.03;83.93;100560.22;5014759;28;20038;-82
2022/11/03 09:34:15;;;;;;;10.33;3.10;;;;;;;13.07;83.85;100553.25;5016425;28;20033;-84
2022/11/03 09:36:40;;;;;;;11.00;2.90;;;;;;;13.08;83.30;100538.59;5016314;28;20173;-84
2022/11/03 09:39:06;;;;;;;12.37;3.30;;;;;;;13.09;83.30;100535.63;4999302;28;20036;-83
2022/11/03 09:41:31;;;;;;;11.97;3.57;;;;;;;13.12;83.42;100532.47;5016068;28;20114;-84
2022/11/03 09:43:59;;;;;;;13.83;2.93;;;;;;;13.14;82.89;100537.66;5015971;28;20099;-85
2022/11/03 09:46:25;;;;;;;10.37;3.60;;;;;;;13.17;83.27;100527.13;5016712;28;20040;-83
2022/11/03 09:48:52;;;;;;;12.37;3.13;;;;;;;13.22;82.04;100522.88;5015963;28;20033;-83
2022/11/03 09:51:19;;;;;;;10.27;3.20;;;;;;;13.22;81.92;100523.72;5016078;28;20047;-84
2022/11/03 09:53:45;;;;;;;8.70;3.27;;;;;;;13.23;81.49;100522.66;5030558;28;20037;-84
2022/11/03 09:56:11;;;;;;;9.77;2.97;;;;;;;13.26;82.10;100518.59;5016342;28;20037;-84
2022/11/03 09:58:36;;;;;;;9.33;3.03;;;;;;;13.25;81.01;100501.47;5016942;28;20789;-84
2022/11/03 10:01:02;;;;;;;9.27;2.70;;;;;;;13.28;80.56;100492.81;5020528;28;21488;-84
2022/11/03 10:03:29;;;;;;;11.20;2.90;;;;;;;13.27;80.90;100495.78;5019531;28;20578;-83
2022/11/03 10:05:54;;;;;;;10.60;3.10;;;;;;;13.27;81.12;100503.94;5019453;28;20557;-84
2022/11/03 10:08:29;;;;;;;13.20;3.03;;;;;;;13.28;81.21;100495.53;5018949;28;20301;-83
2022/11/03 10:10:55;;;;;;;10.63;3.00;;;;;;;13.27;80.98;100488.47;5021251;28;20029;-84
2022/11/03 10:13:38;;;;;;;11.70;2.90;;;;;;;13.30;80.71;100490.69;5021709;28;20060;-83
2022/11/03 10:16:11;;;;;;;16.87;3.53;;;;;;;13.29;80.85;100483.59;5037057;28;20079;-83
2022/11/03 10:18:37;;;;;;;12.33;3.37;;;;;;;13.31;80.45;100475.19;5022391;28;20397;-82
2022/11/03 10:21:05;;;;;;;10.30;3.40;;;;;;;13.30;80.89;100477.09;5020200;28;20077;-83
2022/11/03 10:23:31;;;;;;;11.33;2.77;;;;;;;13.28;80.40;100462.88;5021802;28;20041;-83
2022/11/03 10:26:18;;;;;;;12.03;3.27;;;;;;;13.29;80.48;100470.00;5021044;28;20037;-86
2022/11/03 10:28:59;;;;;;;10.20;2.80;;;;;;;13.32;80.81;100458.63;5020737;28;20509;-83
2022/11/03 10:31:40;;;;;;;10.63;3.13;;;;;;;13.27;81.01;100452.25;5022394;28;20120;-84
2022/11/03 10:34:27;;;;;;;10.83;3.60;;;;;;;13.29;81.26;100456.38;5021453;28;20037;-82
2022/11/03 10:37:21;;;;;;;11.63;3.10;;;;;;;13.29;80.39;100442.78;5037060;28;21013;-82
2022/11/03 10:39:48;;;;;;;8.33;3.00;;;;;;;13.28;80.30;100443.84;5021025;28;20095;-81
2022/11/03 10:42:20;;;;;;;11.90;3.20;;;;;;;13.30;80.47;100432.72;5021112;28;20449;-84
2022/11/03 10:44:46;;;;;;;8.50;2.87;;;;;;;13.32;80.37;100430.59;5012979;28;20037;-83
2022/11/03 10:47:25;;;;;;;8.83;3.00;;;;;;;13.36;79.05;100420.09;5003209;28;20065;-83
2022/11/03 10:49:50;;;;;;;9.20;2.90;;;;;;;13.38;79.48;100424.25;5021770;28;20045;-84
2022/11/03 10:52:28;;;;;;;10.93;3.07;;;;;;;13.42;78.43;100411.81;5002116;28;20037;-83
2022/11/03 10:54:56;;;;;;;7.90;3.00;;;;;;;13.53;77.85;100426.44;5020760;28;20493;-82
2022/11/03 10:57:22;;;;;;;8.57;2.87;;;;;;;13.60;77.34;100421.69;5029259;28;20041;-86
2022/11/03 10:59:50;;;;;;;8.47;2.90;;;;;;;13.64;77.05;100413.81;5035645;28;20485;-82
2022/11/03 11:02:17;;;;;;;10.93;3.10;;;;;;;13.75;77.32;100421.16;5012350;28;20266;-82
2022/11/03 11:04:44;;;;;;;8.80;3.03;;;;;;;13.80;77.13;100412.22;5021526;28;20045;-83
2022/11/03 11:07:40;;;;;;;8.67;2.80;;;;;;;13.83;75.76;100407.13;5020753;28;20044;-83
2022/11/03 11:10:11;;;;;;;9.93;2.80;;;;;;;13.82;75.00;100401.94;5015447;28;20412;-81
2022/11/03 11:12:36;;;;;;;8.80;2.77;;;;;;;13.87;75.13;100402.03;5021151;28;20042;-83
2022/11/03 11:15:23;;;;;;;7.40;2.40;;;;;;;13.91;75.29;100407.78;5021026;28;20049;-83
2022/11/03 11:17:48;;;;;;;7.17;2.87;;;;;;;13.97;74.39;100388.59;5020564;28;20053;-84
2022/11/03 11:20:17;;;;;;;11.77;2.70;;;;;;;14.04;74.10;100396.59;5035399;28;20041;-83
2022/11/03 11:22:42;;;;;;;6.60;2.50;;;;;;;14.01;73.88;100394.38;5020321;28;21630;-82
2022/11/03 11:25:09;;;;;;;8.93;2.77;;;;;;;14.05;73.53;100384.63;5020428;28;20103;-84
2022/11/03 11:27:37;;;;;;;8.63;2.80;;;;;;;14.08;73.75;100386.84;5019851;28;20563;-81
2022/11/03 11:30:06;;;;;;;8.33;2.73;;;;;;;14.08;73.44;100369.69;5011470;28;20057;-83
2022/11/03 11:32:40;;;;;;;8.97;2.70;;;;;;;14.08;73.34;100375.97;5004388;28;20085;-84
2022/11/03 11:35:29;;;;;;;7.47;2.70;;;;;;;14.07;73.05;100355.22;5020578;28;20378;-83
2022/11/03 11:37:55;;;;;;;8.97;3.00;;;;;;;14.14;73.50;100346.91;4994628;28;20513;-83
2022/11/03 11:40:23;;;;;;;8.97;2.73;;;;;;;14.11;72.52;100336.50;5019142;28;20037;-84
2022/11/03 11:43:01;;;;;;;7.87;2.80;;;;;;;14.12;72.52;100330.00;5002546;28;20045;-86
2022/11/03 11:46:04;;;;;;;6.90;2.53;;;;;;;14.15;72.48;100326.75;5002420;28;20067;-84
2022/11/03 11:48:29;;;;;;;7.10;2.40;;;;;;;14.18;72.74;100318.09;5019723;28;20102;-82